sensor_id;sensor_type;location;lat;lon;timestamp;P1;durP1;ratioP1;P2;durP2;ratioP2
53391;SDS011;41667;51.922;8.850;2023-07-20T00:00:21;2.28;;;2.17;;
53391;SDS011;41667;51.922;8.850;2023-07-20T00:02:49;1.80;;;1.70;;
53391;SDS011;41667;51.922;8.850;2023-07-20T00:05:15;3.15;;;2.13;;
53391;SDS011;41667;51.922;8.850;2023-07-20T00:07:43;2.13;;;1.85;;
53391;SDS011;41667;51.922;8.850;2023-07-20T00:10:08;1.50;;;1.40;;
53391;SDS011;41667;51.922;8.850;2023-07-20T00:12:33;1.67;;;1.38;;
53391;SDS011;41667;51.922;8.850;2023-07-20T00:14:58;2.08;;;1.95;;
53391;SDS011;41667;51.922;8.850;2023-07-20T00:17:23;1.95;;;1.85;;
53391;SDS011;41667;51.922;8.850;2023-07-20T00:19:49;3.63;;;2.28;;
53391;SDS011;41667;51.922;8.850;2023-07-20T00:22:14;3.20;;;2.25;;
53391;SDS011;41667;51.922;8.850;2023-07-20T00:24:39;2.17;;;2.05;;
53391;SDS011;41667;51.922;8.850;2023-07-20T00:27:04;1.85;;;1.75;;
53391;SDS011;41667;51.922;8.850;2023-07-20T00:29:29;2.10;;;1.70;;
53391;SDS011;41667;51.922;8.850;2023-07-20T00:31:54;2.10;;;2.00;;
53391;SDS011;41667;51.922;8.850;2023-07-20T00:34:21;3.40;;;1.77;;
53391;SDS011;41667;51.922;8.850;2023-07-20T00:36:46;2.47;;;1.53;;
53391;SDS011;41667;51.922;8.850;2023-07-20T00:39:11;1.90;;;1.80;;
53391;SDS011;41667;51.922;8.850;2023-07-20T00:41:36;2.93;;;2.00;;
53391;SDS011;41667;51.922;8.850;2023-07-20T00:44:02;1.70;;;1.60;;
53391;SDS011;41667;51.922;8.850;2023-07-20T00:46:27;2.07;;;1.87;;
53391;SDS011;41667;51.922;8.850;2023-07-20T00:48:52;4.13;;;2.40;;
53391;SDS011;41667;51.922;8.850;2023-07-20T00:51:18;2.22;;;2.10;;
53391;SDS011;41667;51.922;8.850;2023-07-20T00:53:43;2.13;;;1.55;;
53391;SDS011;41667;51.922;8.850;2023-07-20T00:56:08;2.67;;;1.90;;
53391;SDS011;41667;51.922;8.850;2023-07-20T00:58:33;4.68;;;1.98;;
53391;SDS011;41667;51.922;8.850;2023-07-20T01:00:59;2.08;;;1.70;;
53391;SDS011;41667;51.922;8.850;2023-07-20T01:03:24;1.85;;;1.75;;
53391;SDS011;41667;51.922;8.850;2023-07-20T01:06:08;1.80;;;1.70;;
53391;SDS011;41667;51.922;8.850;2023-07-20T01:13:55;3.55;;;2.03;;
53391;SDS011;41667;51.922;8.850;2023-07-20T01:16:21;3.10;;;2.10;;
53391;SDS011;41667;51.922;8.850;2023-07-20T01:18:46;2.38;;;2.17;;
53391;SDS011;41667;51.922;8.850;2023-07-20T01:21:13;2.65;;;2.47;;
53391;SDS011;41667;51.922;8.850;2023-07-20T01:26:11;4.60;;;2.95;;
53391;SDS011;41667;51.922;8.850;2023-07-20T01:31:36;6.00;;;3.03;;
53391;SDS011;41667;51.922;8.850;2023-07-20T01:36:30;3.38;;;3.08;;
53391;SDS011;41667;51.922;8.850;2023-07-20T01:38:57;4.40;;;3.08;;
53391;SDS011;41667;51.922;8.850;2023-07-20T01:41:22;5.13;;;2.95;;
53391;SDS011;41667;51.922;8.850;2023-07-20T01:43:48;3.63;;;2.30;;
53391;SDS011;41667;51.922;8.850;2023-07-20T01:46:13;5.32;;;3.08;;
53391;SDS011;41667;51.922;8.850;2023-07-20T01:48:38;2.70;;;2.47;;
53391;SDS011;41667;51.922;8.850;2023-07-20T01:51:03;4.90;;;3.63;;
53391;SDS011;41667;51.922;8.850;2023-07-20T01:53:29;6.00;;;3.80;;
53391;SDS011;41667;51.922;8.850;2023-07-20T01:55:54;8.30;;;5.28;;
53391;SDS011;41667;51.922;8.850;2023-07-20T01:58:19;7.47;;;4.53;;
53391;SDS011;41667;51.922;8.850;2023-07-20T02:00:44;6.60;;;4.87;;
53391;SDS011;41667;51.922;8.850;2023-07-20T02:03:10;6.03;;;4.70;;
53391;SDS011;41667;51.922;8.850;2023-07-20T02:05:36;7.53;;;4.88;;
53391;SDS011;41667;51.922;8.850;2023-07-20T02:08:02;5.70;;;5.20;;
53391;SDS011;41667;51.922;8.850;2023-07-20T02:10:27;5.63;;;5.07;;
53391;SDS011;41667;51.922;8.850;2023-07-20T02:12:52;6.88;;;5.65;;
53391;SDS011;41667;51.922;8.850;2023-07-20T02:15:17;8.05;;;5.55;;
53391;SDS011;41667;51.922;8.850;2023-07-20T02:17:43;6.35;;;5.28;;
53391;SDS011;41667;51.922;8.850;2023-07-20T02:20:09;6.13;;;5.47;;
53391;SDS011;41667;51.922;8.850;2023-07-20T02:22:37;7.20;;;5.45;;
53391;SDS011;41667;51.922;8.850;2023-07-20T02:25:06;9.65;;;5.22;;
53391;SDS011;41667;51.922;8.850;2023-07-20T02:27:32;6.05;;;5.40;;
53391;SDS011;41667;51.922;8.850;2023-07-20T02:29:57;6.63;;;5.35;;
53391;SDS011;41667;51.922;8.850;2023-07-20T02:32:22;4.88;;;4.45;;
53391;SDS011;41667;51.922;8.850;2023-07-20T02:34:48;8.73;;;6.10;;
53391;SDS011;41667;51.922;8.850;2023-07-20T02:37:13;8.13;;;5.53;;
53391;SDS011;41667;51.922;8.850;2023-07-20T02:39:38;5.93;;;5.27;;
53391;SDS011;41667;51.922;8.850;2023-07-20T02:42:04;7.57;;;5.53;;
53391;SDS011;41667;51.922;8.850;2023-07-20T02:44:29;8.50;;;6.63;;
53391;SDS011;41667;51.922;8.850;2023-07-20T02:46:55;7.60;;;5.95;;
53391;SDS011;41667;51.922;8.850;2023-07-20T02:49:20;11.57;;;8.38;;
53391;SDS011;41667;51.922;8.850;2023-07-20T02:51:45;10.17;;;7.37;;
53391;SDS011;41667;51.922;8.850;2023-07-20T02:54:11;12.13;;;9.13;;
53391;SDS011;41667;51.922;8.850;2023-07-20T02:56:36;8.67;;;7.10;;
53391;SDS011;41667;51.922;8.850;2023-07-20T02:59:01;15.02;;;9.63;;
53391;SDS011;41667;51.922;8.850;2023-07-20T03:01:26;17.42;;;10.65;;
53391;SDS011;41667;51.922;8.850;2023-07-20T03:03:54;13.57;;;10.18;;
53391;SDS011;41667;51.922;8.850;2023-07-20T03:06:19;17.63;;;9.97;;
53391;SDS011;41667;51.922;8.850;2023-07-20T03:08:44;16.63;;;10.60;;
53391;SDS011;41667;51.922;8.850;2023-07-20T03:11:12;13.77;;;9.27;;
53391;SDS011;41667;51.922;8.850;2023-07-20T03:13:37;11.68;;;9.50;;
53391;SDS011;41667;51.922;8.850;2023-07-20T03:16:03;14.10;;;9.95;;
53391;SDS011;41667;51.922;8.850;2023-07-20T03:18:28;12.88;;;9.70;;
53391;SDS011;41667;51.922;8.850;2023-07-20T03:20:53;14.20;;;9.52;;
53391;SDS011;41667;51.922;8.850;2023-07-20T03:23:18;12.85;;;8.93;;
53391;SDS011;41667;51.922;8.850;2023-07-20T03:25:43;12.13;;;9.52;;
53391;SDS011;41667;51.922;8.850;2023-07-20T03:28:08;15.75;;;10.63;;
53391;SDS011;41667;51.922;8.850;2023-07-20T03:30:34;12.30;;;9.48;;
53391;SDS011;41667;51.922;8.850;2023-07-20T03:32:59;20.83;;;11.43;;
53391;SDS011;41667;51.922;8.850;2023-07-20T03:35:24;14.65;;;10.02;;
53391;SDS011;41667;51.922;8.850;2023-07-20T03:37:49;22.70;;;12.68;;
53391;SDS011;41667;51.922;8.850;2023-07-20T03:40:15;17.98;;;12.48;;
53391;SDS011;41667;51.922;8.850;2023-07-20T03:42:41;17.52;;;11.55;;
53391;SDS011;41667;51.922;8.850;2023-07-20T03:45:06;27.40;;;14.37;;
53391;SDS011;41667;51.922;8.850;2023-07-20T03:47:32;25.80;;;13.88;;
53391;SDS011;41667;51.922;8.850;2023-07-20T03:49:57;28.88;;;15.50;;
53391;SDS011;41667;51.922;8.850;2023-07-20T03:52:23;28.17;;;16.08;;
53391;SDS011;41667;51.922;8.850;2023-07-20T03:54:48;31.38;;;14.95;;
53391;SDS011;41667;51.922;8.850;2023-07-20T03:57:13;34.20;;;17.27;;
53391;SDS011;41667;51.922;8.850;2023-07-20T03:59:38;27.92;;;15.30;;
53391;SDS011;41667;51.922;8.850;2023-07-20T04:02:04;32.63;;;17.63;;
53391;SDS011;41667;51.922;8.850;2023-07-20T04:04:30;28.30;;;17.63;;
53391;SDS011;41667;51.922;8.850;2023-07-20T04:06:55;26.47;;;16.33;;
53391;SDS011;41667;51.922;8.850;2023-07-20T04:09:20;32.05;;;17.90;;
53391;SDS011;41667;51.922;8.850;2023-07-20T04:11:46;27.38;;;16.45;;
53391;SDS011;41667;51.922;8.850;2023-07-20T04:14:11;29.63;;;16.80;;
53391;SDS011;41667;51.922;8.850;2023-07-20T04:16:36;27.90;;;16.20;;
53391;SDS011;41667;51.922;8.850;2023-07-20T04:19:02;34.47;;;16.85;;
53391;SDS011;41667;51.922;8.850;2023-07-20T04:21:27;30.40;;;17.20;;
53391;SDS011;41667;51.922;8.850;2023-07-20T04:23:53;20.02;;;11.73;;
53391;SDS011;41667;51.922;8.850;2023-07-20T04:26:18;17.33;;;8.85;;
53391;SDS011;41667;51.922;8.850;2023-07-20T04:28:43;14.53;;;6.87;;
53391;SDS011;41667;51.922;8.850;2023-07-20T04:31:12;24.30;;;6.57;;
53391;SDS011;41667;51.922;8.850;2023-07-20T04:33:37;10.48;;;5.82;;
53391;SDS011;41667;51.922;8.850;2023-07-20T04:36:02;10.23;;;3.90;;
53391;SDS011;41667;51.922;8.850;2023-07-20T04:38:28;5.10;;;4.03;;
53391;SDS011;41667;51.922;8.850;2023-07-20T04:40:53;4.93;;;3.70;;
53391;SDS011;41667;51.922;8.850;2023-07-20T04:43:18;7.30;;;3.53;;
53391;SDS011;41667;51.922;8.850;2023-07-20T04:45:43;6.95;;;4.45;;
53391;SDS011;41667;51.922;8.850;2023-07-20T04:48:09;5.00;;;3.33;;
53391;SDS011;41667;51.922;8.850;2023-07-20T04:50:36;4.00;;;3.40;;
53391;SDS011;41667;51.922;8.850;2023-07-20T04:53:02;7.13;;;3.75;;
53391;SDS011;41667;51.922;8.850;2023-07-20T04:55:27;5.38;;;4.13;;
53391;SDS011;41667;51.922;8.850;2023-07-20T04:57:52;3.80;;;3.42;;
53391;SDS011;41667;51.922;8.850;2023-07-20T05:00:18;4.57;;;3.60;;
53391;SDS011;41667;51.922;8.850;2023-07-20T05:02:44;4.38;;;3.30;;
53391;SDS011;41667;51.922;8.850;2023-07-20T05:05:09;3.92;;;3.55;;
53391;SDS011;41667;51.922;8.850;2023-07-20T05:07:34;4.63;;;3.27;;
53391;SDS011;41667;51.922;8.850;2023-07-20T05:09:59;7.93;;;3.63;;
53391;SDS011;41667;51.922;8.850;2023-07-20T05:12:25;4.10;;;3.70;;
53391;SDS011;41667;51.922;8.850;2023-07-20T05:14:50;4.45;;;3.45;;
53391;SDS011;41667;51.922;8.850;2023-07-20T05:17:15;3.80;;;3.42;;
53391;SDS011;41667;51.922;8.850;2023-07-20T05:19:41;4.00;;;3.35;;
53391;SDS011;41667;51.922;8.850;2023-07-20T05:22:06;3.20;;;2.90;;
53391;SDS011;41667;51.922;8.850;2023-07-20T05:24:31;6.73;;;3.57;;
53391;SDS011;41667;51.922;8.850;2023-07-20T05:27:12;5.93;;;3.75;;
53391;SDS011;41667;51.922;8.850;2023-07-20T05:29:55;4.35;;;3.65;;
53391;SDS011;41667;51.922;8.850;2023-07-20T05:32:55;5.57;;;3.92;;
53391;SDS011;41667;51.922;8.850;2023-07-20T05:35:32;5.75;;;3.75;;
53391;SDS011;41667;51.922;8.850;2023-07-20T05:38:19;5.25;;;3.15;;
53391;SDS011;41667;51.922;8.850;2023-07-20T05:40:47;5.90;;;3.80;;
53391;SDS011;41667;51.922;8.850;2023-07-20T05:43:34;6.50;;;3.90;;
53391;SDS011;41667;51.922;8.850;2023-07-20T05:45:59;6.45;;;4.00;;
53391;SDS011;41667;51.922;8.850;2023-07-20T05:48:31;5.13;;;3.95;;
53391;SDS011;41667;51.922;8.850;2023-07-20T05:51:09;4.13;;;3.35;;
53391;SDS011;41667;51.922;8.850;2023-07-20T05:59:19;4.70;;;3.95;;
53391;SDS011;41667;51.922;8.850;2023-07-20T06:01:45;3.85;;;3.13;;
53391;SDS011;41667;51.922;8.850;2023-07-20T06:04:10;3.35;;;3.03;;
53391;SDS011;41667;51.922;8.850;2023-07-20T06:06:35;3.95;;;3.13;;
53391;SDS011;41667;51.922;8.850;2023-07-20T06:09:00;3.27;;;2.67;;
53391;SDS011;41667;51.922;8.850;2023-07-20T06:11:29;4.25;;;2.72;;
53391;SDS011;41667;51.922;8.850;2023-07-20T06:13:54;3.67;;;2.58;;
53391;SDS011;41667;51.922;8.850;2023-07-20T06:16:19;4.28;;;2.60;;
53391;SDS011;41667;51.922;8.850;2023-07-20T06:18:44;2.67;;;2.35;;
53391;SDS011;41667;51.922;8.850;2023-07-20T06:21:10;3.50;;;2.72;;
53391;SDS011;41667;51.922;8.850;2023-07-20T06:23:35;3.08;;;2.88;;
53391;SDS011;41667;51.922;8.850;2023-07-20T06:26:01;3.58;;;2.75;;
53391;SDS011;41667;51.922;8.850;2023-07-20T06:28:26;2.45;;;2.25;;
53391;SDS011;41667;51.922;8.850;2023-07-20T06:30:51;2.80;;;2.60;;
53391;SDS011;41667;51.922;8.850;2023-07-20T06:33:16;2.80;;;2.33;;
53391;SDS011;41667;51.922;8.850;2023-07-20T06:35:42;2.55;;;2.35;;
53391;SDS011;41667;51.922;8.850;2023-07-20T06:38:08;2.67;;;2.45;;
53391;SDS011;41667;51.922;8.850;2023-07-20T06:40:33;2.67;;;2.47;;
53391;SDS011;41667;51.922;8.850;2023-07-20T06:42:58;3.40;;;2.23;;
53391;SDS011;41667;51.922;8.850;2023-07-20T06:45:23;3.37;;;2.20;;
53391;SDS011;41667;51.922;8.850;2023-07-20T06:47:48;3.15;;;2.85;;
53391;SDS011;41667;51.922;8.850;2023-07-20T06:50:13;2.00;;;1.90;;
53391;SDS011;41667;51.922;8.850;2023-07-20T06:52:39;2.87;;;2.00;;
53391;SDS011;41667;51.922;8.850;2023-07-20T06:55:04;2.25;;;2.05;;
53391;SDS011;41667;51.922;8.850;2023-07-20T06:57:30;2.50;;;2.28;;
53391;SDS011;41667;51.922;8.850;2023-07-20T06:59:55;1.85;;;1.75;;
53391;SDS011;41667;51.922;8.850;2023-07-20T07:02:20;2.20;;;2.07;;
53391;SDS011;41667;51.922;8.850;2023-07-20T07:04:45;1.33;;;1.25;;
53391;SDS011;41667;51.922;8.850;2023-07-20T07:07:13;1.90;;;1.80;;
53391;SDS011;41667;51.922;8.850;2023-07-20T07:09:38;2.45;;;1.50;;
53391;SDS011;41667;51.922;8.850;2023-07-20T07:12:04;1.95;;;1.77;;
53391;SDS011;41667;51.922;8.850;2023-07-20T07:14:29;1.60;;;1.23;;
53391;SDS011;41667;51.922;8.850;2023-07-20T07:16:54;1.27;;;1.17;;
53391;SDS011;41667;51.922;8.850;2023-07-20T07:19:19;1.30;;;1.10;;
53391;SDS011;41667;51.922;8.850;2023-07-20T07:21:46;1.23;;;1.23;;
53391;SDS011;41667;51.922;8.850;2023-07-20T07:24:11;0.90;;;0.90;;
53391;SDS011;41667;51.922;8.850;2023-07-20T07:26:37;1.07;;;1.07;;
53391;SDS011;41667;51.922;8.850;2023-07-20T07:29:02;0.98;;;0.98;;
53391;SDS011;41667;51.922;8.850;2023-07-20T07:31:28;3.63;;;1.20;;
53391;SDS011;41667;51.922;8.850;2023-07-20T07:33:54;1.75;;;1.20;;
53391;SDS011;41667;51.922;8.850;2023-07-20T07:36:19;3.72;;;1.10;;
53391;SDS011;41667;51.922;8.850;2023-07-20T07:38:44;2.67;;;1.48;;
53391;SDS011;41667;51.922;8.850;2023-07-20T07:41:09;1.08;;;1.08;;
53391;SDS011;41667;51.922;8.850;2023-07-20T07:43:35;1.10;;;1.00;;
53391;SDS011;41667;51.922;8.850;2023-07-20T07:46:00;1.08;;;1.02;;
53391;SDS011;41667;51.922;8.850;2023-07-20T07:48:26;1.60;;;1.50;;
53391;SDS011;41667;51.922;8.850;2023-07-20T07:50:52;1.13;;;1.13;;
53391;SDS011;41667;51.922;8.850;2023-07-20T07:53:18;1.33;;;1.23;;
53391;SDS011;41667;51.922;8.850;2023-07-20T07:55:45;1.40;;;1.30;;
53391;SDS011;41667;51.922;8.850;2023-07-20T07:58:10;3.10;;;1.20;;
53391;SDS011;41667;51.922;8.850;2023-07-20T08:00:35;1.27;;;1.27;;
53391;SDS011;41667;51.922;8.850;2023-07-20T08:03:00;1.00;;;1.00;;
53391;SDS011;41667;51.922;8.850;2023-07-20T08:05:26;2.57;;;1.17;;
53391;SDS011;41667;51.922;8.850;2023-07-20T08:07:51;0.80;;;0.80;;
53391;SDS011;41667;51.922;8.850;2023-07-20T08:10:17;1.17;;;1.00;;
53391;SDS011;41667;51.922;8.850;2023-07-20T08:12:42;1.20;;;1.10;;
53391;SDS011;41667;51.922;8.850;2023-07-20T08:15:10;0.90;;;0.90;;
53391;SDS011;41667;51.922;8.850;2023-07-20T08:17:35;1.13;;;1.00;;
53391;SDS011;41667;51.922;8.850;2023-07-20T08:20:01;0.98;;;0.98;;
53391;SDS011;41667;51.922;8.850;2023-07-20T08:22:26;2.40;;;1.00;;
53391;SDS011;41667;51.922;8.850;2023-07-20T08:24:51;3.00;;;0.80;;
53391;SDS011;41667;51.922;8.850;2023-07-20T08:27:16;2.23;;;0.70;;
53391;SDS011;41667;51.922;8.850;2023-07-20T08:29:41;3.83;;;0.73;;
53391;SDS011;41667;51.922;8.850;2023-07-20T08:32:07;0.75;;;0.75;;
53391;SDS011;41667;51.922;8.850;2023-07-20T08:34:32;0.80;;;0.80;;
53391;SDS011;41667;51.922;8.850;2023-07-20T08:36:58;1.90;;;0.80;;
53391;SDS011;41667;51.922;8.850;2023-07-20T08:39:23;1.10;;;0.68;;
53391;SDS011;41667;51.922;8.850;2023-07-20T08:41:49;0.80;;;0.80;;
53391;SDS011;41667;51.922;8.850;2023-07-20T08:44:14;1.00;;;0.70;;
53391;SDS011;41667;51.922;8.850;2023-07-20T08:46:40;2.08;;;0.88;;
53391;SDS011;41667;51.922;8.850;2023-07-20T08:49:06;1.55;;;0.85;;
53391;SDS011;41667;51.922;8.850;2023-07-20T08:51:31;0.90;;;0.90;;
53391;SDS011;41667;51.922;8.850;2023-07-20T08:53:57;0.50;;;0.50;;
53391;SDS011;41667;51.922;8.850;2023-07-20T08:56:23;1.92;;;0.63;;
53391;SDS011;41667;51.922;8.850;2023-07-20T08:58:49;1.15;;;0.60;;
53391;SDS011;41667;51.922;8.850;2023-07-20T09:01:16;2.28;;;0.80;;
53391;SDS011;41667;51.922;8.850;2023-07-20T09:03:42;1.23;;;0.85;;
53391;SDS011;41667;51.922;8.850;2023-07-20T09:06:09;1.58;;;0.60;;
53391;SDS011;41667;51.922;8.850;2023-07-20T09:08:37;1.83;;;0.60;;
53391;SDS011;41667;51.922;8.850;2023-07-20T09:11:03;0.60;;;0.60;;
53391;SDS011;41667;51.922;8.850;2023-07-20T09:13:28;0.97;;;0.50;;
53391;SDS011;41667;51.922;8.850;2023-07-20T09:15:53;0.55;;;0.55;;
53391;SDS011;41667;51.922;8.850;2023-07-20T09:18:28;0.60;;;0.60;;
53391;SDS011;41667;51.922;8.850;2023-07-20T09:21:06;1.38;;;0.70;;
53391;SDS011;41667;51.922;8.850;2023-07-20T09:23:34;0.47;;;0.47;;
53391;SDS011;41667;51.922;8.850;2023-07-20T09:26:00;2.28;;;0.50;;
53391;SDS011;41667;51.922;8.850;2023-07-20T09:28:25;0.40;;;0.40;;
53391;SDS011;41667;51.922;8.850;2023-07-20T09:30:51;0.40;;;0.40;;
53391;SDS011;41667;51.922;8.850;2023-07-20T09:33:19;0.50;;;0.50;;
53391;SDS011;41667;51.922;8.850;2023-07-20T09:35:45;0.50;;;0.50;;
53391;SDS011;41667;51.922;8.850;2023-07-20T09:38:11;0.50;;;0.50;;
53391;SDS011;41667;51.922;8.850;2023-07-20T09:40:39;0.40;;;0.40;;
53391;SDS011;41667;51.922;8.850;2023-07-20T09:43:07;0.75;;;0.70;;
53391;SDS011;41667;51.922;8.850;2023-07-20T09:45:39;0.50;;;0.50;;
53391;SDS011;41667;51.922;8.850;2023-07-20T09:48:05;0.68;;;0.50;;
53391;SDS011;41667;51.922;8.850;2023-07-20T09:50:31;0.60;;;0.60;;
53391;SDS011;41667;51.922;8.850;2023-07-20T09:52:56;2.70;;;1.20;;
53391;SDS011;41667;51.922;8.850;2023-07-20T09:55:23;1.27;;;0.60;;
53391;SDS011;41667;51.922;8.850;2023-07-20T09:57:49;1.63;;;0.60;;
53391;SDS011;41667;51.922;8.850;2023-07-20T10:00:14;2.15;;;0.70;;
53391;SDS011;41667;51.922;8.850;2023-07-20T10:02:41;0.90;;;0.60;;
53391;SDS011;41667;51.922;8.850;2023-07-20T10:05:08;1.00;;;0.90;;
53391;SDS011;41667;51.922;8.850;2023-07-20T10:07:35;0.63;;;0.60;;
53391;SDS011;41667;51.922;8.850;2023-07-20T10:10:02;1.08;;;0.65;;
53391;SDS011;41667;51.922;8.850;2023-07-20T10:12:28;1.13;;;0.60;;
53391;SDS011;41667;51.922;8.850;2023-07-20T10:14:59;0.70;;;0.70;;
53391;SDS011;41667;51.922;8.850;2023-07-20T10:17:31;0.50;;;0.50;;
53391;SDS011;41667;51.922;8.850;2023-07-20T10:19:56;2.17;;;0.65;;
53391;SDS011;41667;51.922;8.850;2023-07-20T10:22:26;1.30;;;0.60;;
53391;SDS011;41667;51.922;8.850;2023-07-20T10:24:51;2.33;;;0.82;;
53391;SDS011;41667;51.922;8.850;2023-07-20T10:27:19;0.68;;;0.63;;
53391;SDS011;41667;51.922;8.850;2023-07-20T10:29:44;0.45;;;0.43;;
53391;SDS011;41667;51.922;8.850;2023-07-20T10:32:10;0.40;;;0.40;;
53391;SDS011;41667;51.922;8.850;2023-07-20T10:34:35;1.48;;;0.77;;
53391;SDS011;41667;51.922;8.850;2023-07-20T10:37:01;1.65;;;1.35;;
53391;SDS011;41667;51.922;8.850;2023-07-20T10:39:27;0.93;;;0.50;;
53391;SDS011;41667;51.922;8.850;2023-07-20T10:42:07;0.70;;;0.70;;
53391;SDS011;41667;51.922;8.850;2023-07-20T10:44:33;0.73;;;0.50;;
53391;SDS011;41667;51.922;8.850;2023-07-20T10:46:59;0.45;;;0.45;;
53391;SDS011;41667;51.922;8.850;2023-07-20T10:49:25;0.45;;;0.45;;
53391;SDS011;41667;51.922;8.850;2023-07-20T10:51:56;1.48;;;0.60;;
53391;SDS011;41667;51.922;8.850;2023-07-20T10:56:47;0.40;;;0.40;;
53391;SDS011;41667;51.922;8.850;2023-07-20T11:01:56;0.40;;;0.40;;
53391;SDS011;41667;51.922;8.850;2023-07-20T11:04:37;0.43;;;0.43;;
53391;SDS011;41667;51.922;8.850;2023-07-20T11:07:03;0.50;;;0.50;;
53391;SDS011;41667;51.922;8.850;2023-07-20T11:09:32;0.40;;;0.40;;
53391;SDS011;41667;51.922;8.850;2023-07-20T11:14:39;0.32;;;0.32;;
53391;SDS011;41667;51.922;8.850;2023-07-20T11:17:11;0.32;;;0.32;;
53391;SDS011;41667;51.922;8.850;2023-07-20T11:19:36;0.40;;;0.40;;
53391;SDS011;41667;51.922;8.850;2023-07-20T11:22:01;1.60;;;0.50;;
53391;SDS011;41667;51.922;8.850;2023-07-20T11:24:29;1.75;;;0.60;;
53391;SDS011;41667;51.922;8.850;2023-07-20T11:26:55;0.50;;;0.40;;
53391;SDS011;41667;51.922;8.850;2023-07-20T11:29:21;0.53;;;0.53;;
53391;SDS011;41667;51.922;8.850;2023-07-20T11:31:46;0.40;;;0.40;;
53391;SDS011;41667;51.922;8.850;2023-07-20T11:34:16;1.65;;;0.50;;
53391;SDS011;41667;51.922;8.850;2023-07-20T11:36:42;0.32;;;0.32;;
53391;SDS011;41667;51.922;8.850;2023-07-20T11:39:11;0.95;;;0.63;;
53391;SDS011;41667;51.922;8.850;2023-07-20T11:41:37;1.77;;;0.50;;
53391;SDS011;41667;51.922;8.850;2023-07-20T11:44:03;0.75;;;0.70;;
53391;SDS011;41667;51.922;8.850;2023-07-20T11:46:29;3.20;;;0.50;;
53391;SDS011;41667;51.922;8.850;2023-07-20T11:49:00;0.95;;;0.82;;
53391;SDS011;41667;51.922;8.850;2023-07-20T11:51:26;0.40;;;0.40;;
53391;SDS011;41667;51.922;8.850;2023-07-20T11:53:52;0.40;;;0.40;;
53391;SDS011;41667;51.922;8.850;2023-07-20T11:56:17;0.43;;;0.43;;
53391;SDS011;41667;51.922;8.850;2023-07-20T11:58:43;1.10;;;0.65;;
53391;SDS011;41667;51.922;8.850;2023-07-20T12:01:09;0.50;;;0.50;;
53391;SDS011;41667;51.922;8.850;2023-07-20T12:03:35;0.30;;;0.30;;
53391;SDS011;41667;51.922;8.850;2023-07-20T12:06:07;0.50;;;0.50;;
53391;SDS011;41667;51.922;8.850;2023-07-20T12:08:32;4.07;;;0.80;;
53391;SDS011;41667;51.922;8.850;2023-07-20T12:10:58;0.57;;;0.57;;
53391;SDS011;41667;51.922;8.850;2023-07-20T12:13:23;0.43;;;0.43;;
53391;SDS011;41667;51.922;8.850;2023-07-20T12:15:52;2.63;;;0.73;;
53391;SDS011;41667;51.922;8.850;2023-07-20T12:18:22;0.63;;;0.60;;
53391;SDS011;41667;51.922;8.850;2023-07-20T12:20:47;0.60;;;0.60;;
53391;SDS011;41667;51.922;8.850;2023-07-20T12:23:13;2.47;;;0.60;;
53391;SDS011;41667;51.922;8.850;2023-07-20T12:25:42;0.70;;;0.70;;
53391;SDS011;41667;51.922;8.850;2023-07-20T12:28:08;0.55;;;0.55;;
53391;SDS011;41667;51.922;8.850;2023-07-20T12:30:33;0.45;;;0.45;;
53391;SDS011;41667;51.922;8.850;2023-07-20T12:32:58;1.50;;;0.80;;
53391;SDS011;41667;51.922;8.850;2023-07-20T12:35:24;0.83;;;0.80;;
53391;SDS011;41667;51.922;8.850;2023-07-20T12:37:49;0.47;;;0.47;;
53391;SDS011;41667;51.922;8.850;2023-07-20T12:40:15;1.13;;;0.80;;
53391;SDS011;41667;51.922;8.850;2023-07-20T12:42:40;4.45;;;0.80;;
53391;SDS011;41667;51.922;8.850;2023-07-20T12:45:06;1.60;;;0.80;;
53391;SDS011;41667;51.922;8.850;2023-07-20T12:47:31;0.63;;;0.63;;
53391;SDS011;41667;51.922;8.850;2023-07-20T12:49:56;0.80;;;0.80;;
53391;SDS011;41667;51.922;8.850;2023-07-20T12:52:22;0.73;;;0.73;;
53391;SDS011;41667;51.922;8.850;2023-07-20T12:54:47;0.90;;;0.90;;
53391;SDS011;41667;51.922;8.850;2023-07-20T12:57:12;0.95;;;0.95;;
53391;SDS011;41667;51.922;8.850;2023-07-20T12:59:37;1.33;;;0.90;;
53391;SDS011;41667;51.922;8.850;2023-07-20T13:02:02;1.07;;;1.00;;
53391;SDS011;41667;51.922;8.850;2023-07-20T13:04:27;0.90;;;0.90;;
53391;SDS011;41667;51.922;8.850;2023-07-20T13:06:53;0.90;;;0.90;;
53391;SDS011;41667;51.922;8.850;2023-07-20T13:09:18;0.93;;;0.93;;
53391;SDS011;41667;51.922;8.850;2023-07-20T13:11:43;0.70;;;0.70;;
53391;SDS011;41667;51.922;8.850;2023-07-20T13:14:09;0.95;;;0.95;;
53391;SDS011;41667;51.922;8.850;2023-07-20T13:16:34;1.20;;;1.20;;
53391;SDS011;41667;51.922;8.850;2023-07-20T13:19:00;0.93;;;0.93;;
53391;SDS011;41667;51.922;8.850;2023-07-20T13:21:25;2.95;;;1.27;;
53391;SDS011;41667;51.922;8.850;2023-07-20T13:23:50;1.63;;;1.15;;
53391;SDS011;41667;51.922;8.850;2023-07-20T13:26:15;0.85;;;0.85;;
53391;SDS011;41667;51.922;8.850;2023-07-20T13:28:41;0.93;;;0.93;;
53391;SDS011;41667;51.922;8.850;2023-07-20T13:31:06;1.40;;;1.30;;
53391;SDS011;41667;51.922;8.850;2023-07-20T13:33:33;1.00;;;1.00;;
53391;SDS011;41667;51.922;8.850;2023-07-20T13:35:58;1.00;;;1.00;;
53391;SDS011;41667;51.922;8.850;2023-07-20T13:38:23;1.07;;;1.07;;
53391;SDS011;41667;51.922;8.850;2023-07-20T13:40:49;1.17;;;1.10;;
53391;SDS011;41667;51.922;8.850;2023-07-20T13:43:14;0.87;;;0.83;;
53391;SDS011;41667;51.922;8.850;2023-07-20T13:45:39;0.95;;;0.82;;
53391;SDS011;41667;51.922;8.850;2023-07-20T13:48:04;1.10;;;1.00;;
53391;SDS011;41667;51.922;8.850;2023-07-20T13:50:29;1.25;;;1.10;;
53391;SDS011;41667;51.922;8.850;2023-07-20T13:52:54;1.15;;;1.02;;
53391;SDS011;41667;51.922;8.850;2023-07-20T13:55:20;1.20;;;1.17;;
53391;SDS011;41667;51.922;8.850;2023-07-20T13:57:45;1.27;;;1.27;;
53391;SDS011;41667;51.922;8.850;2023-07-20T14:00:10;1.00;;;1.00;;
53391;SDS011;41667;51.922;8.850;2023-07-20T14:02:36;1.83;;;1.15;;
53391;SDS011;41667;51.922;8.850;2023-07-20T14:05:02;2.05;;;0.95;;
53391;SDS011;41667;51.922;8.850;2023-07-20T14:07:27;0.82;;;0.82;;
53391;SDS011;41667;51.922;8.850;2023-07-20T14:09:52;0.93;;;0.93;;
53391;SDS011;41667;51.922;8.850;2023-07-20T14:12:17;0.70;;;0.70;;
53391;SDS011;41667;51.922;8.850;2023-07-20T14:14:43;0.93;;;0.90;;
53391;SDS011;41667;51.922;8.850;2023-07-20T14:17:08;0.77;;;0.77;;
53391;SDS011;41667;51.922;8.850;2023-07-20T14:19:33;2.20;;;0.67;;
53391;SDS011;41667;51.922;8.850;2023-07-20T14:21:58;0.70;;;0.70;;
53391;SDS011;41667;51.922;8.850;2023-07-20T14:24:24;0.60;;;0.60;;
53391;SDS011;41667;51.922;8.850;2023-07-20T14:26:49;0.60;;;0.60;;
53391;SDS011;41667;51.922;8.850;2023-07-20T14:29:15;0.60;;;0.60;;
53391;SDS011;41667;51.922;8.850;2023-07-20T14:31:40;0.67;;;0.67;;
53391;SDS011;41667;51.922;8.850;2023-07-20T14:34:05;1.05;;;0.73;;
53391;SDS011;41667;51.922;8.850;2023-07-20T14:36:30;0.60;;;0.60;;
53391;SDS011;41667;51.922;8.850;2023-07-20T14:38:55;0.67;;;0.67;;
53391;SDS011;41667;51.922;8.850;2023-07-20T14:41:20;0.50;;;0.50;;
53391;SDS011;41667;51.922;8.850;2023-07-20T14:43:46;0.45;;;0.45;;
53391;SDS011;41667;51.922;8.850;2023-07-20T14:46:11;0.40;;;0.40;;
53391;SDS011;41667;51.922;8.850;2023-07-20T14:48:36;0.43;;;0.43;;
53391;SDS011;41667;51.922;8.850;2023-07-20T14:51:02;1.10;;;0.38;;
53391;SDS011;41667;51.922;8.850;2023-07-20T14:53:28;0.80;;;0.50;;
53391;SDS011;41667;51.922;8.850;2023-07-20T14:55:57;0.20;;;0.20;;
53391;SDS011;41667;51.922;8.850;2023-07-20T14:58:23;0.75;;;0.38;;
53391;SDS011;41667;51.922;8.850;2023-07-20T15:00:48;0.43;;;0.43;;
53391;SDS011;41667;51.922;8.850;2023-07-20T15:03:13;0.30;;;0.30;;
53391;SDS011;41667;51.922;8.850;2023-07-20T15:05:38;0.40;;;0.40;;